Westwood Rainier — C6SI3 — position and weather

sailwx.info

Track history (hours):
 
Tides and Currents Weather Stations Pressure Air Temp Water Temp Dewpoint Dewpoint Depression Visibility Wind Speed Wind Dir Waves Ship Positions

Westwood Rainier

Last reported at 2014-Sep-18 19:34 UTC. Time now 2014-Sep-18 19:49 UTC.
Position N 35°07' E 139°46'.

Type: Cargo ship. MMSI: 311348993.

Date/timePositionNaut miles runAvg speedWind from/ knotsBaromVisibWave heightAir tempDewpointWater temp
2014-Sep-18 19:34N 35°07' E 139°46'8 8.2
2014-Sep-18 18:34N 34°59' E 139°42'  
2014-Sep-16 11:33N 33°60' E 134°55'1515.1
2014-Sep-16 10:33N 34°15' E 134°58'1615.5
2014-Sep-16 09:33N 34°28' E 135°09'1515.1
2014-Sep-16 08:33N 34°38' E 135°23'2 1.7
2014-Sep-16 07:31N 34°38' E 135°25'0 0.0
2014-Sep-16 06:31N 34°38' E 135°25'0 0.0
2014-Sep-16 05:31N 34°38' E 135°25'0 0.0
2014-Sep-16 04:25N 34°38' E 135°25'0 0.0
2014-Sep-16 03:31N 34°38' E 135°25'0 0.0
2014-Sep-16 02:31N 34°38' E 135°25'0 0.0
2014-Sep-16 01:31N 34°38' E 135°25'0 0.0
2014-Sep-16 00:31N 34°38' E 135°25'0 0.0
2014-Sep-15 23:31N 34°38' E 135°25'0 0.0
2014-Sep-15 22:33N 34°38' E 135°25'7 6.8
2014-Sep-15 21:33N 34°34' E 135°18'1212.1
2014-Sep-15 20:33N 34°25' E 135°08'1313.0
2014-Sep-15 19:33N 34°14' E 134°59'1111.0
2014-Sep-15 18:33N 34°03' E 134°59'15014.5
2014-Sep-15 08:11N 32°40' E 132°29'  
2014-Sep-11 07:12N 32°39' E 132°55'35013.1
2014-Sep-10 04:33N 34°40' E 139°30'1212.4
2014-Sep-10 03:33N 34°51' E 139°37'1212.0
2014-Sep-10 02:33N 35°02' E 139°42'1212.4
2014-Sep-10 01:33N 35°14' E 139°47'1211.5
2014-Sep-10 00:33N 35°26' E 139°45'1211.7
2014-Sep-09 23:33N 35°37' E 139°49'1 1.3
2014-Sep-09 22:33N 35°37' E 139°47'0 0.0
2014-Sep-09 21:33N 35°37' E 139°47'0 0.0
2014-Sep-09 20:33N 35°37' E 139°47'0 0.0
2014-Sep-09 19:33N 35°37' E 139°47'0 0.0
2014-Sep-09 18:30N 35°37' E 139°47'0 0.0
2014-Sep-09 17:33N 35°37' E 139°47'0 0.0
2014-Sep-09 16:33N 35°37' E 139°47'0 0.0
2014-Sep-09 15:33N 35°37' E 139°47'0 0.0
2014-Sep-09 14:30N 35°37' E 139°47'0 0.0
2014-Sep-09 13:30N 35°37' E 139°47'0 0.0
2014-Sep-09 12:30N 35°37' E 139°47'0 0.0
2014-Sep-09 11:24N 35°37' E 139°47'0 0.0
2014-Sep-09 10:33N 35°37' E 139°47'0 0.0
2014-Sep-09 09:33N 35°37' E 139°47'0 0.0
2014-Sep-09 08:33N 35°37' E 139°47'0 0.0
2014-Sep-09 07:24N 35°37' E 139°47'0 0.0
2014-Sep-09 06:33N 35°37' E 139°47'0 0.0
2014-Sep-09 05:30N 35°37' E 139°47'0 0.0
2014-Sep-09 04:30N 35°37' E 139°47'0 0.0
2014-Sep-09 03:33N 35°37' E 139°47'0 0.0
2014-Sep-09 02:21N 35°37' E 139°47'0 0.0
2014-Sep-09 01:33N 35°37' E 139°47'0 0.0
2014-Sep-09 00:33N 35°37' E 139°47'0 0.0
2014-Sep-08 23:30N 35°37' E 139°47'0 0.0
2014-Sep-08 22:30N 35°37' E 139°47'0 0.0
2014-Sep-08 21:30N 35°37' E 139°47'0 0.0
2014-Sep-08 20:33N 35°37' E 139°47'  
Track history (hours):
 
Tides and Currents Weather Stations Pressure Air Temp Water Temp Dewpoint Dewpoint Depression Visibility Wind Speed Wind Dir Waves Ship Positions

Westwood Rainier

Last reported at 2014-Sep-18 19:34 UTC. Time now 2014-Sep-18 19:49 UTC.
Position N 35°07' E 139°46'.

Type: Cargo ship. MMSI: 311348993.

Date/timePositionNaut miles runAvg speedWind from/ knotsBaromVisibWave heightAir tempDewpointWater temp
2014-Sep-18 19:34N 35°07' E 139°46'8 8.2
2014-Sep-18 18:34N 34°59' E 139°42'  
2014-Sep-16 11:33N 33°60' E 134°55'1515.1
2014-Sep-16 10:33N 34°15' E 134°58'1615.5
2014-Sep-16 09:33N 34°28' E 135°09'1515.1
2014-Sep-16 08:33N 34°38' E 135°23'2 1.7
2014-Sep-16 07:31N 34°38' E 135°25'0 0.0
2014-Sep-16 06:31N 34°38' E 135°25'0 0.0
2014-Sep-16 05:31N 34°38' E 135°25'0 0.0
2014-Sep-16 04:25N 34°38' E 135°25'0 0.0
2014-Sep-16 03:31N 34°38' E 135°25'0 0.0
2014-Sep-16 02:31N 34°38' E 135°25'0 0.0
2014-Sep-16 01:31N 34°38' E 135°25'0 0.0
2014-Sep-16 00:31N 34°38' E 135°25'0 0.0
2014-Sep-15 23:31N 34°38' E 135°25'0 0.0
2014-Sep-15 22:33N 34°38' E 135°25'7 6.8
2014-Sep-15 21:33N 34°34' E 135°18'1212.1
2014-Sep-15 20:33N 34°25' E 135°08'1313.0
2014-Sep-15 19:33N 34°14' E 134°59'1111.0
2014-Sep-15 18:33N 34°03' E 134°59'15014.5
2014-Sep-15 08:11N 32°40' E 132°29'  
2014-Sep-11 07:12N 32°39' E 132°55'35013.1
2014-Sep-10 04:33N 34°40' E 139°30'1212.4
2014-Sep-10 03:33N 34°51' E 139°37'1212.0
2014-Sep-10 02:33N 35°02' E 139°42'1212.4
2014-Sep-10 01:33N 35°14' E 139°47'1211.5
2014-Sep-10 00:33N 35°26' E 139°45'1211.7
2014-Sep-09 23:33N 35°37' E 139°49'1 1.3
2014-Sep-09 22:33N 35°37' E 139°47'0 0.0
2014-Sep-09 21:33N 35°37' E 139°47'0 0.0
2014-Sep-09 20:33N 35°37' E 139°47'0 0.0
2014-Sep-09 19:33N 35°37' E 139°47'0 0.0
2014-Sep-09 18:30N 35°37' E 139°47'0 0.0
2014-Sep-09 17:33N 35°37' E 139°47'0 0.0
2014-Sep-09 16:33N 35°37' E 139°47'0 0.0
2014-Sep-09 15:33N 35°37' E 139°47'0 0.0
2014-Sep-09 14:30N 35°37' E 139°47'0 0.0
2014-Sep-09 13:30N 35°37' E 139°47'0 0.0
2014-Sep-09 12:30N 35°37' E 139°47'0 0.0
2014-Sep-09 11:24N 35°37' E 139°47'0 0.0
2014-Sep-09 10:33N 35°37' E 139°47'0 0.0
2014-Sep-09 09:33N 35°37' E 139°47'0 0.0
2014-Sep-09 08:33N 35°37' E 139°47'0 0.0
2014-Sep-09 07:24N 35°37' E 139°47'0 0.0
2014-Sep-09 06:33N 35°37' E 139°47'0 0.0
2014-Sep-09 05:30N 35°37' E 139°47'0 0.0
2014-Sep-09 04:30N 35°37' E 139°47'0 0.0
2014-Sep-09 03:33N 35°37' E 139°47'0 0.0
2014-Sep-09 02:21N 35°37' E 139°47'0 0.0
2014-Sep-09 01:33N 35°37' E 139°47'0 0.0
2014-Sep-09 00:33N 35°37' E 139°47'0 0.0
2014-Sep-08 23:30N 35°37' E 139°47'0 0.0
2014-Sep-08 22:30N 35°37' E 139°47'0 0.0
2014-Sep-08 21:30N 35°37' E 139°47'0 0.0
2014-Sep-08 20:33N 35°37' E 139°47'  

Dump ship's entire track history